sensor_id;sensor_type;location;lat;lon;timestamp;P1;durP1;ratioP1;P2;durP2;ratioP2
5807;SDS011;2930;42.678;23.312;2023-04-25T00:01:05;0.65;;;0.57;;
5807;SDS011;2930;42.678;23.312;2023-04-25T00:03:31;0.40;;;0.40;;
5807;SDS011;2930;42.678;23.312;2023-04-25T00:05:58;0.75;;;0.40;;
5807;SDS011;2930;42.678;23.312;2023-04-25T00:08:28;0.40;;;0.40;;
5807;SDS011;2930;42.678;23.312;2023-04-25T00:10:55;0.40;;;0.40;;
5807;SDS011;2930;42.678;23.312;2023-04-25T00:13:21;0.47;;;0.47;;
5807;SDS011;2930;42.678;23.312;2023-04-25T00:15:47;0.40;;;0.40;;
5807;SDS011;2930;42.678;23.312;2023-04-25T00:18:13;2.70;;;0.30;;
5807;SDS011;2930;42.678;23.312;2023-04-25T00:20:39;0.40;;;0.40;;
5807;SDS011;2930;42.678;23.312;2023-04-25T00:23:05;0.45;;;0.45;;
5807;SDS011;2930;42.678;23.312;2023-04-25T00:25:31;0.30;;;0.30;;
5807;SDS011;2930;42.678;23.312;2023-04-25T00:27:56;0.30;;;0.30;;
5807;SDS011;2930;42.678;23.312;2023-04-25T00:30:22;1.45;;;0.70;;
5807;SDS011;2930;42.678;23.312;2023-04-25T00:32:48;0.50;;;0.50;;
5807;SDS011;2930;42.678;23.312;2023-04-25T00:35:14;0.32;;;0.32;;
5807;SDS011;2930;42.678;23.312;2023-04-25T00:37:39;2.88;;;0.47;;
5807;SDS011;2930;42.678;23.312;2023-04-25T00:40:05;0.50;;;0.50;;
5807;SDS011;2930;42.678;23.312;2023-04-25T00:42:32;0.45;;;0.45;;
5807;SDS011;2930;42.678;23.312;2023-04-25T00:44:58;0.90;;;0.50;;
5807;SDS011;2930;42.678;23.312;2023-04-25T00:47:25;0.60;;;0.60;;
5807;SDS011;2930;42.678;23.312;2023-04-25T00:49:50;0.65;;;0.65;;
5807;SDS011;2930;42.678;23.312;2023-04-25T00:52:18;0.52;;;0.52;;
5807;SDS011;2930;42.678;23.312;2023-04-25T00:54:44;0.52;;;0.52;;
5807;SDS011;2930;42.678;23.312;2023-04-25T00:57:10;0.60;;;0.60;;
5807;SDS011;2930;42.678;23.312;2023-04-25T00:59:36;0.70;;;0.70;;
5807;SDS011;2930;42.678;23.312;2023-04-25T01:02:03;0.50;;;0.50;;
5807;SDS011;2930;42.678;23.312;2023-04-25T01:04:29;0.43;;;0.43;;
5807;SDS011;2930;42.678;23.312;2023-04-25T01:06:55;0.70;;;0.57;;
5807;SDS011;2930;42.678;23.312;2023-04-25T01:09:22;0.85;;;0.77;;
5807;SDS011;2930;42.678;23.312;2023-04-25T01:11:49;0.73;;;0.73;;
5807;SDS011;2930;42.678;23.312;2023-04-25T01:14:14;0.60;;;0.60;;
5807;SDS011;2930;42.678;23.312;2023-04-25T01:16:41;0.60;;;0.50;;
5807;SDS011;2930;42.678;23.312;2023-04-25T01:19:09;0.47;;;0.47;;
5807;SDS011;2930;42.678;23.312;2023-04-25T01:21:38;0.50;;;0.50;;
5807;SDS011;2930;42.678;23.312;2023-04-25T01:24:05;0.50;;;0.50;;
5807;SDS011;2930;42.678;23.312;2023-04-25T01:26:31;0.68;;;0.68;;
5807;SDS011;2930;42.678;23.312;2023-04-25T01:28:57;0.50;;;0.50;;
5807;SDS011;2930;42.678;23.312;2023-04-25T01:31:23;0.50;;;0.50;;
5807;SDS011;2930;42.678;23.312;2023-04-25T01:33:50;0.50;;;0.50;;
5807;SDS011;2930;42.678;23.312;2023-04-25T01:36:16;0.50;;;0.50;;
5807;SDS011;2930;42.678;23.312;2023-04-25T01:38:43;0.60;;;0.60;;
5807;SDS011;2930;42.678;23.312;2023-04-25T01:41:09;0.47;;;0.47;;
5807;SDS011;2930;42.678;23.312;2023-04-25T01:43:35;0.40;;;0.40;;
5807;SDS011;2930;42.678;23.312;2023-04-25T01:46:01;0.40;;;0.40;;
5807;SDS011;2930;42.678;23.312;2023-04-25T01:48:26;0.40;;;0.40;;
5807;SDS011;2930;42.678;23.312;2023-04-25T01:50:52;0.82;;;0.82;;
5807;SDS011;2930;42.678;23.312;2023-04-25T01:53:18;0.63;;;0.63;;
5807;SDS011;2930;42.678;23.312;2023-04-25T01:55:43;0.55;;;0.55;;
5807;SDS011;2930;42.678;23.312;2023-04-25T01:58:09;0.55;;;0.55;;
5807;SDS011;2930;42.678;23.312;2023-04-25T02:00:37;0.45;;;0.45;;
5807;SDS011;2930;42.678;23.312;2023-04-25T02:03:04;0.65;;;0.65;;
5807;SDS011;2930;42.678;23.312;2023-04-25T02:05:39;0.45;;;0.45;;
5807;SDS011;2930;42.678;23.312;2023-04-25T02:08:06;0.70;;;0.70;;
5807;SDS011;2930;42.678;23.312;2023-04-25T02:10:34;0.35;;;0.35;;
5807;SDS011;2930;42.678;23.312;2023-04-25T02:13:01;0.50;;;0.50;;
5807;SDS011;2930;42.678;23.312;2023-04-25T02:15:26;0.40;;;0.40;;
5807;SDS011;2930;42.678;23.312;2023-04-25T02:17:52;0.45;;;0.45;;
5807;SDS011;2930;42.678;23.312;2023-04-25T02:20:20;0.45;;;0.45;;
5807;SDS011;2930;42.678;23.312;2023-04-25T02:22:46;0.65;;;0.60;;
5807;SDS011;2930;42.678;23.312;2023-04-25T02:25:12;0.60;;;0.60;;
5807;SDS011;2930;42.678;23.312;2023-04-25T02:27:38;0.35;;;0.35;;
5807;SDS011;2930;42.678;23.312;2023-04-25T02:30:04;0.65;;;0.65;;
5807;SDS011;2930;42.678;23.312;2023-04-25T02:32:31;0.45;;;0.45;;
5807;SDS011;2930;42.678;23.312;2023-04-25T02:34:59;0.43;;;0.43;;
5807;SDS011;2930;42.678;23.312;2023-04-25T02:37:29;0.40;;;0.40;;
5807;SDS011;2930;42.678;23.312;2023-04-25T02:39:55;0.50;;;0.50;;
5807;SDS011;2930;42.678;23.312;2023-04-25T02:42:21;0.52;;;0.52;;
5807;SDS011;2930;42.678;23.312;2023-04-25T02:44:46;0.50;;;0.50;;
5807;SDS011;2930;42.678;23.312;2023-04-25T02:47:12;0.43;;;0.43;;
5807;SDS011;2930;42.678;23.312;2023-04-25T02:49:38;0.43;;;0.43;;
5807;SDS011;2930;42.678;23.312;2023-04-25T02:52:03;0.60;;;0.60;;
5807;SDS011;2930;42.678;23.312;2023-04-25T02:54:29;0.40;;;0.40;;
5807;SDS011;2930;42.678;23.312;2023-04-25T02:56:55;0.57;;;0.57;;
5807;SDS011;2930;42.678;23.312;2023-04-25T02:59:21;0.68;;;0.68;;
5807;SDS011;2930;42.678;23.312;2023-04-25T03:01:46;0.68;;;0.68;;
5807;SDS011;2930;42.678;23.312;2023-04-25T03:04:12;0.50;;;0.50;;
5807;SDS011;2930;42.678;23.312;2023-04-25T03:06:38;0.43;;;0.43;;
5807;SDS011;2930;42.678;23.312;2023-04-25T03:09:03;0.50;;;0.50;;
5807;SDS011;2930;42.678;23.312;2023-04-25T03:11:29;0.70;;;0.70;;
5807;SDS011;2930;42.678;23.312;2023-04-25T03:13:55;0.73;;;0.60;;
5807;SDS011;2930;42.678;23.312;2023-04-25T03:16:21;0.67;;;0.67;;
5807;SDS011;2930;42.678;23.312;2023-04-25T03:18:47;0.90;;;0.63;;
5807;SDS011;2930;42.678;23.312;2023-04-25T03:21:12;0.50;;;0.50;;
5807;SDS011;2930;42.678;23.312;2023-04-25T03:23:38;0.70;;;0.70;;
5807;SDS011;2930;42.678;23.312;2023-04-25T03:26:04;0.55;;;0.55;;
5807;SDS011;2930;42.678;23.312;2023-04-25T03:28:30;1.00;;;0.40;;
5807;SDS011;2930;42.678;23.312;2023-04-25T03:30:55;0.40;;;0.40;;
5807;SDS011;2930;42.678;23.312;2023-04-25T03:33:21;0.50;;;0.50;;
5807;SDS011;2930;42.678;23.312;2023-04-25T03:35:47;0.50;;;0.50;;
5807;SDS011;2930;42.678;23.312;2023-04-25T03:38:12;0.40;;;0.40;;
5807;SDS011;2930;42.678;23.312;2023-04-25T03:40:38;1.85;;;0.55;;
5807;SDS011;2930;42.678;23.312;2023-04-25T03:43:04;0.45;;;0.45;;
5807;SDS011;2930;42.678;23.312;2023-04-25T03:45:29;0.63;;;0.63;;
5807;SDS011;2930;42.678;23.312;2023-04-25T03:47:55;1.30;;;0.60;;
5807;SDS011;2930;42.678;23.312;2023-04-25T03:50:21;0.80;;;0.80;;
5807;SDS011;2930;42.678;23.312;2023-04-25T03:52:47;0.57;;;0.57;;
5807;SDS011;2930;42.678;23.312;2023-04-25T03:55:12;0.80;;;0.80;;
5807;SDS011;2930;42.678;23.312;2023-04-25T03:57:38;0.50;;;0.50;;
5807;SDS011;2930;42.678;23.312;2023-04-25T04:00:04;0.55;;;0.55;;
5807;SDS011;2930;42.678;23.312;2023-04-25T04:02:31;0.80;;;0.57;;
5807;SDS011;2930;42.678;23.312;2023-04-25T04:04:58;0.43;;;0.40;;
5807;SDS011;2930;42.678;23.312;2023-04-25T04:07:23;0.60;;;0.60;;
5807;SDS011;2930;42.678;23.312;2023-04-25T04:09:49;0.53;;;0.53;;
5807;SDS011;2930;42.678;23.312;2023-04-25T04:12:15;0.63;;;0.63;;
5807;SDS011;2930;42.678;23.312;2023-04-25T04:14:40;1.17;;;1.17;;
5807;SDS011;2930;42.678;23.312;2023-04-25T04:17:06;1.10;;;1.10;;
5807;SDS011;2930;42.678;23.312;2023-04-25T04:19:32;0.98;;;0.98;;
5807;SDS011;2930;42.678;23.312;2023-04-25T04:21:57;0.80;;;0.80;;
5807;SDS011;2930;42.678;23.312;2023-04-25T04:24:23;1.00;;;1.00;;
5807;SDS011;2930;42.678;23.312;2023-04-25T04:26:49;0.95;;;0.95;;
5807;SDS011;2930;42.678;23.312;2023-04-25T04:29:15;0.85;;;0.85;;
5807;SDS011;2930;42.678;23.312;2023-04-25T04:31:47;0.60;;;0.60;;
5807;SDS011;2930;42.678;23.312;2023-04-25T04:34:17;0.80;;;0.80;;
5807;SDS011;2930;42.678;23.312;2023-04-25T04:36:43;1.08;;;1.08;;
5807;SDS011;2930;42.678;23.312;2023-04-25T04:39:13;0.57;;;0.57;;
5807;SDS011;2930;42.678;23.312;2023-04-25T04:41:39;0.90;;;0.90;;
5807;SDS011;2930;42.678;23.312;2023-04-25T04:44:05;0.75;;;0.75;;
5807;SDS011;2930;42.678;23.312;2023-04-25T04:46:31;1.08;;;1.08;;
5807;SDS011;2930;42.678;23.312;2023-04-25T04:49:04;0.93;;;0.93;;
5807;SDS011;2930;42.678;23.312;2023-04-25T04:51:30;0.88;;;0.88;;
5807;SDS011;2930;42.678;23.312;2023-04-25T04:53:56;1.27;;;1.27;;
5807;SDS011;2930;42.678;23.312;2023-04-25T04:56:23;1.33;;;1.23;;
5807;SDS011;2930;42.678;23.312;2023-04-25T04:58:50;0.88;;;0.88;;
5807;SDS011;2930;42.678;23.312;2023-04-25T05:01:17;1.20;;;1.10;;
5807;SDS011;2930;42.678;23.312;2023-04-25T05:03:43;0.95;;;0.95;;
5807;SDS011;2930;42.678;23.312;2023-04-25T05:06:08;1.05;;;1.05;;
5807;SDS011;2930;42.678;23.312;2023-04-25T05:08:34;0.95;;;0.95;;
5807;SDS011;2930;42.678;23.312;2023-04-25T05:11:01;1.13;;;1.13;;
5807;SDS011;2930;42.678;23.312;2023-04-25T05:13:27;1.33;;;1.30;;
5807;SDS011;2930;42.678;23.312;2023-04-25T05:15:52;1.88;;;1.15;;
5807;SDS011;2930;42.678;23.312;2023-04-25T05:18:18;1.27;;;1.27;;
5807;SDS011;2930;42.678;23.312;2023-04-25T05:20:44;1.30;;;1.05;;
5807;SDS011;2930;42.678;23.312;2023-04-25T05:23:09;1.38;;;1.30;;
5807;SDS011;2930;42.678;23.312;2023-04-25T05:25:35;1.50;;;1.40;;
5807;SDS011;2930;42.678;23.312;2023-04-25T05:28:01;1.48;;;1.35;;
5807;SDS011;2930;42.678;23.312;2023-04-25T05:30:26;1.73;;;1.63;;
5807;SDS011;2930;42.678;23.312;2023-04-25T05:32:52;1.50;;;1.40;;
5807;SDS011;2930;42.678;23.312;2023-04-25T05:35:18;3.70;;;1.33;;
5807;SDS011;2930;42.678;23.312;2023-04-25T05:37:43;1.45;;;1.45;;
5807;SDS011;2930;42.678;23.312;2023-04-25T05:40:09;1.63;;;1.58;;
5807;SDS011;2930;42.678;23.312;2023-04-25T05:42:35;1.50;;;1.50;;
5807;SDS011;2930;42.678;23.312;2023-04-25T05:45:01;2.00;;;1.90;;
5807;SDS011;2930;42.678;23.312;2023-04-25T05:47:27;2.15;;;2.05;;
5807;SDS011;2930;42.678;23.312;2023-04-25T05:49:53;2.13;;;2.03;;
5807;SDS011;2930;42.678;23.312;2023-04-25T05:52:19;1.92;;;1.83;;
5807;SDS011;2930;42.678;23.312;2023-04-25T05:54:44;2.08;;;1.92;;
5807;SDS011;2930;42.678;23.312;2023-04-25T05:57:20;1.80;;;1.73;;
5807;SDS011;2930;42.678;23.312;2023-04-25T05:59:50;1.38;;;1.35;;
5807;SDS011;2930;42.678;23.312;2023-04-25T06:02:16;1.48;;;1.38;;
5807;SDS011;2930;42.678;23.312;2023-04-25T06:04:43;1.73;;;1.70;;
5807;SDS011;2930;42.678;23.312;2023-04-25T06:07:09;2.00;;;1.90;;
5807;SDS011;2930;42.678;23.312;2023-04-25T06:09:34;1.80;;;1.70;;
5807;SDS011;2930;42.678;23.312;2023-04-25T06:12:00;1.17;;;1.17;;
5807;SDS011;2930;42.678;23.312;2023-04-25T06:14:26;1.77;;;1.55;;
5807;SDS011;2930;42.678;23.312;2023-04-25T06:16:52;2.78;;;1.35;;
5807;SDS011;2930;42.678;23.312;2023-04-25T06:19:18;2.22;;;1.40;;
5807;SDS011;2930;42.678;23.312;2023-04-25T06:21:43;1.70;;;1.60;;
5807;SDS011;2930;42.678;23.312;2023-04-25T06:24:09;1.33;;;1.33;;
5807;SDS011;2930;42.678;23.312;2023-04-25T06:26:35;1.45;;;1.33;;
5807;SDS011;2930;42.678;23.312;2023-04-25T06:29:00;1.23;;;1.23;;
5807;SDS011;2930;42.678;23.312;2023-04-25T06:31:26;1.27;;;1.17;;
5807;SDS011;2930;42.678;23.312;2023-04-25T06:33:53;1.40;;;1.38;;
5807;SDS011;2930;42.678;23.312;2023-04-25T06:36:20;1.70;;;1.50;;
5807;SDS011;2930;42.678;23.312;2023-04-25T06:38:50;1.23;;;1.23;;
5807;SDS011;2930;42.678;23.312;2023-04-25T06:41:16;0.93;;;0.93;;
5807;SDS011;2930;42.678;23.312;2023-04-25T06:43:42;1.05;;;1.05;;
5807;SDS011;2930;42.678;23.312;2023-04-25T06:46:07;1.30;;;1.02;;
5807;SDS011;2930;42.678;23.312;2023-04-25T06:48:33;3.90;;;1.60;;
5807;SDS011;2930;42.678;23.312;2023-04-25T06:50:59;0.88;;;0.88;;
5807;SDS011;2930;42.678;23.312;2023-04-25T06:53:24;1.45;;;0.88;;
5807;SDS011;2930;42.678;23.312;2023-04-25T06:55:50;0.80;;;0.80;;
5807;SDS011;2930;42.678;23.312;2023-04-25T06:58:16;2.13;;;1.08;;
5807;SDS011;2930;42.678;23.312;2023-04-25T07:00:42;1.23;;;1.23;;
5807;SDS011;2930;42.678;23.312;2023-04-25T07:03:08;1.05;;;1.05;;
5807;SDS011;2930;42.678;23.312;2023-04-25T07:05:34;1.23;;;1.02;;
5807;SDS011;2930;42.678;23.312;2023-04-25T07:08:00;1.00;;;1.00;;
5807;SDS011;2930;42.678;23.312;2023-04-25T07:10:26;1.13;;;1.13;;
5807;SDS011;2930;42.678;23.312;2023-04-25T07:12:52;1.00;;;1.00;;
5807;SDS011;2930;42.678;23.312;2023-04-25T07:15:17;1.05;;;1.05;;
5807;SDS011;2930;42.678;23.312;2023-04-25T07:17:43;1.08;;;1.08;;
5807;SDS011;2930;42.678;23.312;2023-04-25T07:20:09;0.90;;;0.90;;
5807;SDS011;2930;42.678;23.312;2023-04-25T07:22:35;0.60;;;0.60;;
5807;SDS011;2930;42.678;23.312;2023-04-25T07:25:00;1.17;;;0.93;;
5807;SDS011;2930;42.678;23.312;2023-04-25T07:27:26;4.47;;;1.67;;
5807;SDS011;2930;42.678;23.312;2023-04-25T07:29:52;1.20;;;1.20;;
5807;SDS011;2930;42.678;23.312;2023-04-25T07:32:18;2.17;;;0.90;;
5807;SDS011;2930;42.678;23.312;2023-04-25T07:34:44;0.95;;;0.95;;
5807;SDS011;2930;42.678;23.312;2023-04-25T07:37:10;1.33;;;1.15;;
5807;SDS011;2930;42.678;23.312;2023-04-25T07:39:36;1.67;;;1.23;;
5807;SDS011;2930;42.678;23.312;2023-04-25T07:42:02;1.95;;;1.10;;
5807;SDS011;2930;42.678;23.312;2023-04-25T07:44:28;1.67;;;1.05;;
5807;SDS011;2930;42.678;23.312;2023-04-25T07:46:55;2.10;;;1.90;;
5807;SDS011;2930;42.678;23.312;2023-04-25T07:49:21;1.40;;;1.40;;
5807;SDS011;2930;42.678;23.312;2023-04-25T07:51:47;1.35;;;1.33;;
5807;SDS011;2930;42.678;23.312;2023-04-25T07:54:13;1.63;;;1.52;;
5807;SDS011;2930;42.678;23.312;2023-04-25T07:56:40;1.23;;;1.23;;
5807;SDS011;2930;42.678;23.312;2023-04-25T07:59:06;3.15;;;1.23;;
5807;SDS011;2930;42.678;23.312;2023-04-25T08:01:33;1.63;;;1.60;;
5807;SDS011;2930;42.678;23.312;2023-04-25T08:03:59;1.25;;;1.13;;
5807;SDS011;2930;42.678;23.312;2023-04-25T08:06:24;2.35;;;1.88;;
5807;SDS011;2930;42.678;23.312;2023-04-25T08:08:50;2.97;;;1.75;;
5807;SDS011;2930;42.678;23.312;2023-04-25T08:11:16;1.83;;;1.63;;
5807;SDS011;2930;42.678;23.312;2023-04-25T08:13:42;1.50;;;1.40;;
5807;SDS011;2930;42.678;23.312;2023-04-25T08:16:07;1.92;;;1.40;;
5807;SDS011;2930;42.678;23.312;2023-04-25T08:18:33;1.52;;;1.27;;
5807;SDS011;2930;42.678;23.312;2023-04-25T08:20:59;1.15;;;1.13;;
5807;SDS011;2930;42.678;23.312;2023-04-25T08:23:24;3.63;;;1.52;;
5807;SDS011;2930;42.678;23.312;2023-04-25T08:25:50;1.23;;;1.20;;
5807;SDS011;2930;42.678;23.312;2023-04-25T08:28:16;1.00;;;1.00;;
5807;SDS011;2930;42.678;23.312;2023-04-25T08:30:42;2.17;;;1.10;;
5807;SDS011;2930;42.678;23.312;2023-04-25T08:33:07;1.38;;;1.27;;
5807;SDS011;2930;42.678;23.312;2023-04-25T08:35:33;1.48;;;1.38;;
5807;SDS011;2930;42.678;23.312;2023-04-25T08:37:59;2.08;;;1.30;;
5807;SDS011;2930;42.678;23.312;2023-04-25T08:40:26;3.35;;;1.42;;
5807;SDS011;2930;42.678;23.312;2023-04-25T08:42:55;1.88;;;1.60;;
5807;SDS011;2930;42.678;23.312;2023-04-25T08:45:22;2.08;;;1.25;;
5807;SDS011;2930;42.678;23.312;2023-04-25T08:47:51;1.48;;;1.40;;
5807;SDS011;2930;42.678;23.312;2023-04-25T08:50:17;1.65;;;1.55;;
5807;SDS011;2930;42.678;23.312;2023-04-25T08:52:46;1.42;;;1.40;;
5807;SDS011;2930;42.678;23.312;2023-04-25T08:55:13;1.15;;;1.13;;
5807;SDS011;2930;42.678;23.312;2023-04-25T08:57:40;0.85;;;0.85;;
5807;SDS011;2930;42.678;23.312;2023-04-25T09:00:10;1.52;;;1.27;;
5807;SDS011;2930;42.678;23.312;2023-04-25T09:02:40;1.35;;;1.35;;
5807;SDS011;2930;42.678;23.312;2023-04-25T09:05:08;1.45;;;1.42;;
5807;SDS011;2930;42.678;23.312;2023-04-25T09:07:37;1.90;;;1.80;;
5807;SDS011;2930;42.678;23.312;2023-04-25T09:10:03;1.17;;;1.17;;
5807;SDS011;2930;42.678;23.312;2023-04-25T09:12:29;1.60;;;1.50;;
5807;SDS011;2930;42.678;23.312;2023-04-25T09:15:09;1.08;;;1.08;;
5807;SDS011;2930;42.678;23.312;2023-04-25T09:17:36;1.42;;;1.20;;
5807;SDS011;2930;42.678;23.312;2023-04-25T09:20:09;1.75;;;1.27;;
5807;SDS011;2930;42.678;23.312;2023-04-25T09:22:40;1.38;;;1.27;;
5807;SDS011;2930;42.678;23.312;2023-04-25T09:25:09;2.92;;;1.05;;
5807;SDS011;2930;42.678;23.312;2023-04-25T09:27:36;1.58;;;1.58;;
5807;SDS011;2930;42.678;23.312;2023-04-25T09:30:17;1.40;;;1.40;;
5807;SDS011;2930;42.678;23.312;2023-04-25T09:32:43;1.60;;;1.50;;
5807;SDS011;2930;42.678;23.312;2023-04-25T09:35:10;1.35;;;1.30;;
5807;SDS011;2930;42.678;23.312;2023-04-25T09:37:36;1.25;;;1.25;;
5807;SDS011;2930;42.678;23.312;2023-04-25T09:40:04;2.22;;;1.30;;
5807;SDS011;2930;42.678;23.312;2023-04-25T09:42:31;1.40;;;1.40;;
5807;SDS011;2930;42.678;23.312;2023-04-25T09:44:59;1.38;;;1.27;;
5807;SDS011;2930;42.678;23.312;2023-04-25T09:47:26;1.20;;;1.20;;
5807;SDS011;2930;42.678;23.312;2023-04-25T09:49:53;1.67;;;1.63;;
5807;SDS011;2930;42.678;23.312;2023-04-25T09:52:23;0.85;;;0.40;;
5807;SDS011;2930;42.678;23.312;2023-04-25T09:54:50;0.63;;;0.63;;
5807;SDS011;2930;42.678;23.312;2023-04-25T09:59:43;0.70;;;0.65;;
5807;SDS011;2930;42.678;23.312;2023-04-25T10:02:10;1.02;;;1.02;;
5807;SDS011;2930;42.678;23.312;2023-04-25T10:04:37;2.08;;;1.10;;
5807;SDS011;2930;42.678;23.312;2023-04-25T10:07:07;3.13;;;0.95;;
5807;SDS011;2930;42.678;23.312;2023-04-25T10:09:34;1.10;;;1.10;;
5807;SDS011;2930;42.678;23.312;2023-04-25T10:12:02;1.08;;;1.08;;
5807;SDS011;2930;42.678;23.312;2023-04-25T10:14:31;2.35;;;1.30;;
5807;SDS011;2930;42.678;23.312;2023-04-25T10:16:58;0.60;;;0.60;;
5807;SDS011;2930;42.678;23.312;2023-04-25T10:19:24;0.30;;;0.30;;
5807;SDS011;2930;42.678;23.312;2023-04-25T10:21:56;0.30;;;0.30;;
5807;SDS011;2930;42.678;23.312;2023-04-25T10:24:29;0.40;;;0.40;;
5807;SDS011;2930;42.678;23.312;2023-04-25T10:26:55;0.20;;;0.20;;
5807;SDS011;2930;42.678;23.312;2023-04-25T10:29:25;0.20;;;0.20;;
5807;SDS011;2930;42.678;23.312;2023-04-25T10:31:51;1.08;;;0.30;;
5807;SDS011;2930;42.678;23.312;2023-04-25T10:34:17;0.20;;;0.20;;
5807;SDS011;2930;42.678;23.312;2023-04-25T10:36:44;0.70;;;0.70;;
5807;SDS011;2930;42.678;23.312;2023-04-25T10:39:21;0.20;;;0.20;;
5807;SDS011;2930;42.678;23.312;2023-04-25T10:41:52;0.20;;;0.20;;
5807;SDS011;2930;42.678;23.312;2023-04-25T10:44:21;0.20;;;0.20;;
5807;SDS011;2930;42.678;23.312;2023-04-25T10:46:46;0.28;;;0.28;;
5807;SDS011;2930;42.678;23.312;2023-04-25T10:49:28;0.75;;;0.30;;
5807;SDS011;2930;42.678;23.312;2023-04-25T10:52:04;0.25;;;0.25;;
5807;SDS011;2930;42.678;23.312;2023-04-25T10:54:40;0.63;;;0.13;;
5807;SDS011;2930;42.678;23.312;2023-04-25T10:57:38;0.20;;;0.20;;
5807;SDS011;2930;42.678;23.312;2023-04-25T11:00:07;0.80;;;0.30;;
5807;SDS011;2930;42.678;23.312;2023-04-25T11:07:58;0.85;;;0.20;;
5807;SDS011;2930;42.678;23.312;2023-04-25T11:10:25;0.20;;;0.20;;
5807;SDS011;2930;42.678;23.312;2023-04-25T11:12:52;0.20;;;0.20;;
5807;SDS011;2930;42.678;23.312;2023-04-25T11:15:18;1.35;;;0.20;;
5807;SDS011;2930;42.678;23.312;2023-04-25T11:17:43;0.43;;;0.20;;
5807;SDS011;2930;42.678;23.312;2023-04-25T11:20:11;0.17;;;0.17;;
5807;SDS011;2930;42.678;23.312;2023-04-25T11:22:40;0.20;;;0.20;;
5807;SDS011;2930;42.678;23.312;2023-04-25T11:25:07;0.75;;;0.20;;
5807;SDS011;2930;42.678;23.312;2023-04-25T11:27:34;0.30;;;0.30;;
5807;SDS011;2930;42.678;23.312;2023-04-25T11:30:09;0.17;;;0.17;;
5807;SDS011;2930;42.678;23.312;2023-04-25T11:32:36;0.38;;;0.38;;
5807;SDS011;2930;42.678;23.312;2023-04-25T11:35:04;0.40;;;0.40;;
5807;SDS011;2930;42.678;23.312;2023-04-25T11:37:31;0.20;;;0.20;;
5807;SDS011;2930;42.678;23.312;2023-04-25T11:39:57;0.30;;;0.30;;
5807;SDS011;2930;42.678;23.312;2023-04-25T11:42:22;0.30;;;0.30;;
5807;SDS011;2930;42.678;23.312;2023-04-25T11:44:48;0.98;;;0.22;;
5807;SDS011;2930;42.678;23.312;2023-04-25T11:47:15;0.40;;;0.40;;
5807;SDS011;2930;42.678;23.312;2023-04-25T11:49:40;0.52;;;0.47;;
5807;SDS011;2930;42.678;23.312;2023-04-25T11:52:06;0.30;;;0.30;;
5807;SDS011;2930;42.678;23.312;2023-04-25T11:54:34;0.20;;;0.20;;
5807;SDS011;2930;42.678;23.312;2023-04-25T11:57:02;0.20;;;0.20;;
5807;SDS011;2930;42.678;23.312;2023-04-25T11:59:28;0.20;;;0.20;;
5807;SDS011;2930;42.678;23.312;2023-04-25T12:01:55;0.20;;;0.20;;
5807;SDS011;2930;42.678;23.312;2023-04-25T12:04:22;0.40;;;0.40;;
5807;SDS011;2930;42.678;23.312;2023-04-25T12:06:50;0.10;;;0.10;;
5807;SDS011;2930;42.678;23.312;2023-04-25T12:09:21;0.20;;;0.20;;
5807;SDS011;2930;42.678;23.312;2023-04-25T12:11:54;0.20;;;0.20;;
5807;SDS011;2930;42.678;23.312;2023-04-25T12:14:21;0.32;;;0.32;;
5807;SDS011;2930;42.678;23.312;2023-04-25T12:16:52;0.20;;;0.20;;
5807;SDS011;2930;42.678;23.312;2023-04-25T12:19:20;0.20;;;0.20;;
5807;SDS011;2930;42.678;23.312;2023-04-25T12:21:46;0.28;;;0.28;;
5807;SDS011;2930;42.678;23.312;2023-04-25T12:29:17;0.20;;;0.20;;
5807;SDS011;2930;42.678;23.312;2023-04-25T12:31:54;0.30;;;0.25;;
5807;SDS011;2930;42.678;23.312;2023-04-25T12:34:20;0.28;;;0.20;;
5807;SDS011;2930;42.678;23.312;2023-04-25T12:36:46;0.30;;;0.30;;
5807;SDS011;2930;42.678;23.312;2023-04-25T12:41:51;0.17;;;0.17;;
5807;SDS011;2930;42.678;23.312;2023-04-25T12:44:19;0.28;;;0.28;;
5807;SDS011;2930;42.678;23.312;2023-04-25T12:49:30;0.40;;;0.40;;
5807;SDS011;2930;42.678;23.312;2023-04-25T12:51:56;2.83;;;0.40;;
5807;SDS011;2930;42.678;23.312;2023-04-25T12:54:22;0.32;;;0.32;;
5807;SDS011;2930;42.678;23.312;2023-04-25T12:56:48;0.75;;;0.43;;
5807;SDS011;2930;42.678;23.312;2023-04-25T12:59:15;0.73;;;0.28;;
5807;SDS011;2930;42.678;23.312;2023-04-25T13:01:41;0.28;;;0.28;;
5807;SDS011;2930;42.678;23.312;2023-04-25T13:04:07;0.43;;;0.35;;
5807;SDS011;2930;42.678;23.312;2023-04-25T13:06:33;0.35;;;0.25;;
5807;SDS011;2930;42.678;23.312;2023-04-25T13:08:59;0.85;;;0.28;;
5807;SDS011;2930;42.678;23.312;2023-04-25T13:11:25;0.35;;;0.35;;
5807;SDS011;2930;42.678;23.312;2023-04-25T13:13:51;0.30;;;0.30;;
5807;SDS011;2930;42.678;23.312;2023-04-25T13:16:16;1.65;;;0.32;;
5807;SDS011;2930;42.678;23.312;2023-04-25T13:18:43;0.30;;;0.30;;
5807;SDS011;2930;42.678;23.312;2023-04-25T13:21:09;0.82;;;0.20;;
5807;SDS011;2930;42.678;23.312;2023-04-25T13:23:36;0.55;;;0.30;;
5807;SDS011;2930;42.678;23.312;2023-04-25T13:26:02;1.10;;;0.40;;
5807;SDS011;2930;42.678;23.312;2023-04-25T13:28:28;0.40;;;0.40;;
5807;SDS011;2930;42.678;23.312;2023-04-25T13:30:54;0.30;;;0.30;;
5807;SDS011;2930;42.678;23.312;2023-04-25T13:33:20;0.75;;;0.47;;
5807;SDS011;2930;42.678;23.312;2023-04-25T13:35:47;0.30;;;0.30;;
5807;SDS011;2930;42.678;23.312;2023-04-25T13:38:21;3.70;;;0.45;;
5807;SDS011;2930;42.678;23.312;2023-04-25T13:40:48;0.43;;;0.30;;
5807;SDS011;2930;42.678;23.312;2023-04-25T13:43:15;0.32;;;0.32;;
5807;SDS011;2930;42.678;23.312;2023-04-25T13:45:41;1.10;;;0.32;;
5807;SDS011;2930;42.678;23.312;2023-04-25T13:48:07;0.38;;;0.38;;
5807;SDS011;2930;42.678;23.312;2023-04-25T13:50:32;1.75;;;0.30;;
5807;SDS011;2930;42.678;23.312;2023-04-25T13:52:58;0.35;;;0.35;;
5807;SDS011;2930;42.678;23.312;2023-04-25T13:55:24;2.13;;;0.50;;
5807;SDS011;2930;42.678;23.312;2023-04-25T13:57:50;0.35;;;0.35;;
5807;SDS011;2930;42.678;23.312;2023-04-25T14:00:16;0.25;;;0.25;;
5807;SDS011;2930;42.678;23.312;2023-04-25T14:02:42;0.20;;;0.20;;
5807;SDS011;2930;42.678;23.312;2023-04-25T14:05:07;0.20;;;0.20;;
5807;SDS011;2930;42.678;23.312;2023-04-25T14:07:34;0.20;;;0.20;;
5807;SDS011;2930;42.678;23.312;2023-04-25T14:10:00;0.20;;;0.20;;
5807;SDS011;2930;42.678;23.312;2023-04-25T14:12:26;1.55;;;0.20;;
5807;SDS011;2930;42.678;23.312;2023-04-25T14:14:52;0.20;;;0.20;;
5807;SDS011;2930;42.678;23.312;2023-04-25T14:17:18;0.32;;;0.20;;
5807;SDS011;2930;42.678;23.312;2023-04-25T14:19:44;0.20;;;0.20;;
5807;SDS011;2930;42.678;23.312;2023-04-25T14:22:12;0.10;;;0.10;;
5807;SDS011;2930;42.678;23.312;2023-04-25T14:24:39;0.20;;;0.20;;
5807;SDS011;2930;42.678;23.312;2023-04-25T14:27:04;0.17;;;0.17;;
5807;SDS011;2930;42.678;23.312;2023-04-25T14:29:30;0.30;;;0.30;;
5807;SDS011;2930;42.678;23.312;2023-04-25T14:31:56;0.20;;;0.20;;
5807;SDS011;2930;42.678;23.312;2023-04-25T14:34:23;0.20;;;0.20;;
5807;SDS011;2930;42.678;23.312;2023-04-25T14:36:50;0.30;;;0.30;;
5807;SDS011;2930;42.678;23.312;2023-04-25T14:39:16;0.20;;;0.20;;
5807;SDS011;2930;42.678;23.312;2023-04-25T14:41:42;0.30;;;0.30;;
5807;SDS011;2930;42.678;23.312;2023-04-25T14:44:08;0.20;;;0.20;;
5807;SDS011;2930;42.678;23.312;2023-04-25T14:46:34;0.30;;;0.30;;
5807;SDS011;2930;42.678;23.312;2023-04-25T14:49:00;0.17;;;0.17;;
5807;SDS011;2930;42.678;23.312;2023-04-25T14:51:26;0.20;;;0.20;;
5807;SDS011;2930;42.678;23.312;2023-04-25T14:53:52;3.22;;;0.30;;
5807;SDS011;2930;42.678;23.312;2023-04-25T14:56:18;0.25;;;0.25;;
5807;SDS011;2930;42.678;23.312;2023-04-25T14:58:43;0.30;;;0.30;;
5807;SDS011;2930;42.678;23.312;2023-04-25T15:01:10;0.93;;;0.32;;
5807;SDS011;2930;42.678;23.312;2023-04-25T15:03:37;0.40;;;0.40;;
5807;SDS011;2930;42.678;23.312;2023-04-25T15:06:04;0.60;;;0.60;;
5807;SDS011;2930;42.678;23.312;2023-04-25T15:08:31;0.30;;;0.30;;
5807;SDS011;2930;42.678;23.312;2023-04-25T15:10:57;0.20;;;0.20;;
5807;SDS011;2930;42.678;23.312;2023-04-25T15:13:24;0.38;;;0.38;;
5807;SDS011;2930;42.678;23.312;2023-04-25T15:15:51;0.50;;;0.50;;